ADDS METAR Data INFO
IDs: Format: Raw Decoded Include TAF

Data at: 2319 UTC 15 Jul 2018

KJEF 152253Z 29005KT 10SM CLR 34/18 A2991 RMK AO2 SLP115 T03390178 $
KJEF 152153Z 29006KT 10SM CLR 34/18 A2992 RMK AO2 SLP117 T03440183 $
KJEF 152053Z 31010KT 10SM CLR 34/18 A2993 RMK AO2 SLP118 T03390183 58018 $
KJEF 151953Z VRB05KT 10SM CLR 33/21 A2995 RMK AO2 SLP125 T03330206 $
KJEF 151853Z 10SM CLR 33/22 A2996 RMK AO2 SLP131 T03280222 $
KJEF 151753Z 00000KT 10SM FEW029 31/23 A2998 RMK AO2 SLP136 T03110233 10311 20244 58005 $
KJEF 151653Z 13003KT 10SM FEW024 29/24 A2999 RMK AO2 SLP142 T02890239 $
KJEF 151610Z 00000KT 10SM BKN019 29/24 A2999 RMK AO2 T02890239 $
KJEF 151553Z 00000KT 10SM FEW015 28/23 A2999 RMK AO2 SLP142 T02830233 $
KJEF 151453Z 00000KT 10SM SCT080 OVC090 26/23 A2999 RMK AO2 SLP142 T02610233 50002 $
KJEF 151353Z 00000KT 10SM SCT009 BKN060 BKN090 25/23 A3000 RMK AO2 SLP143 T02500228 $
KJEF 151300Z 00000KT 10SM FEW008 SCT080 24/23 A2999 RMK AO2 T02440228 $
KJEF 151253Z 00000KT 10SM FEW060 SCT080 24/23 A2999 RMK AO2 SLP141 T02440228 $
KJEF 151153Z 00000KT 10SM CLR 23/22 A2999 RMK AO2 RAE19 SLP139 P0002 60008 70016 T02330222 10244 20228 51006 $
KJEF 151053Z 27004KT 7SM -RA SCT110 23/22 A2998 RMK AO2 SLP138 P0006 T02330222 $
KJEF 150953Z 26004KT 10SM -RA BKN060 OVC120 24/22 A2998 RMK AO2 RAB48 SLP136 P0000 T02440217 $
KJEF 150853Z 30003KT 10SM SCT075 24/22 A2997 RMK AO2 SLP134 T02390217 55010 $
KJEF 150753Z 17003KT 10SM CLR 23/22 A2997 RMK AO2 SLP132 T02330217 $
KJEF 150653Z 10003KT 10SM OVC090 23/22 A2998 RMK AO2 SLP136 T02330217 $
KJEF 150553Z 14008KT 10SM FEW055 SCT100 24/22 A3000 RMK AO2 SLP143 60001 T02390217 10328 20239 403440228 51006 $
KJEF 150453Z 12004KT 10SM CLR 24/22 A2999 RMK AO2 SLP141 T02440217 $
KJEF 150353Z 18006KT 10SM FEW019 FEW120 25/22 A2999 RMK AO2 SLP140 T02500217 $
KJEF 150253Z 00000KT 10SM FEW110 27/23 A2998 RMK AO2 LTG DSNT S RAE04B27E44 SLP136 P0001 60001 T02670233 53010 $
KJEF 150153Z VRB06KT 10SM -RA FEW075 SCT100 28/22 A2997 RMK AO2 RAB48 SLP133 P0000 T02830222 $
KJEF 150053Z 36007KT 10SM CLR 30/22 A2995 RMK AO2 SLP126 T03000222 $
KJEF 142353Z 21007KT 10SM CLR 32/21 A2995 RMK AO2 LTG DSNT N SLP126 60007 T03220206 10344 20267 55007 $
KJEF 142317Z 21007KT 10SM CLR 32/23 A2993 RMK AO2 LTG DSNT N T03220228 $
KJEF 142253Z 18005KT 10SM VCTS CLR 31/23 A2991 RMK AO2 SLP114 TS S MOV E T03110228 $
KJEF 142229Z 14004KT 10SM VCTS CLR 30/25 A2993 RMK AO2 TS S MOV E T03000250 $
KJEF 142153Z 12003KT 10SM FEW120 29/24 A2995 RMK AO2 LTG DSNT NE AND SW RAE03 TSE2056 SLP129 P0000 T02940239 $
KJEF 142118Z 00000KT 10SM BKN110 28/22 A2996 RMK AO2 LTG DSNT NE AND E AND SW RAE03 TSE2056 P0000 T02780222 $
KJEF 142102Z 00000KT 10SM VCTS -RA SCT100 BKN110 28/22 A2997 RMK AO2 LTG DSNT NE AND E TSE2056 TS NE MOV NE P0000 T02780222 $
KJEF 142053Z 00000KT 7SM -TSRA FEW042 SCT095 BKN110 28/22 A2997 RMK AO2 PK WND 19033/2025 LTG DSNT NE AND E RAB11 TSB17 SLP134 TS SW MOV NE P0007 60007 T02780217 55014 $
KJEF 142023Z 18016G29KT 150V220 10SM -TSRA FEW040 BKN050 BKN060 29/23 A2996 RMK AO2 PK WND 15029/2023 LTG DSNT NE RAB11 TSB17 TS SW MOV NE P0001 T02940233 $
KJEF 142012Z VRB04KT 6SM VCTS -RA FEW038 BKN050 BKN065 31/23 A2995 RMK AO2 LTG DSNT NE AND SW RAB11 TS SW MOV NE P0000 T03060233 $
KJEF 141953Z 28004KT 10SM SCT060 33/23 A2996 RMK AO2 LTG DSNT NE AND SW SLP129 TS N MOV NE T03330228 $
KJEF 141915Z 23010G17KT 10SM 34/21 A2997 RMK AO2 LTG DSNT NW-NE TS N MOV NE T03390211 $
KJEF 141901Z 24009KT 10SM VCTS FEW001 SCT060 SCT070 33/21 A2998 RMK AO2 LTG DSNT NW-NE TS N MOV NE T03330211 $
KJEF 141853Z 24009G19KT 10SM VCTS FEW060 34/21 A2998 RMK AO2 LTG DSNT N AND NE SLP138 T03440211 $
KJEF 141753Z 22012G17KT 10SM FEW055 34/22 A3001 RMK AO2 SLP146 T03440217 10344 20239 56004
KJEF 141653Z 27010G15KT 10SM SCT050 33/22 A3001 RMK AO2 LTG DSNT SW SLP147 T03280217
KJEF 141553Z 00000KT 10SM SCT044 33/22 A3002 RMK AO2 SLP149 T03280222
KJEF 141453Z 17004KT 10SM CLR 30/22 A3002 RMK AO2 SLP151 T03000222 58003
KJEF 141353Z VRB03KT 10SM CLR 28/22 A3003 RMK AO2 SLP152 T02780217
KJEF 141253Z 00000KT 10SM CLR 26/21 A3004 RMK AO2 SLP155 T02560206
KJEF 141153Z 00000KT 10SM CLR 24/20 A3003 RMK AO2 SLP154 T02390200 10278 20228 53011